sensor_id;sensor_type;location;lat;lon;timestamp;pressure;altitude;pressure_sealevel;temperature;humidity
55418;BME280;41287;47.554;7.844;2023-09-08T00:02:27;98201.84;;;23.46;57.05
55418;BME280;41287;47.554;7.844;2023-09-08T00:04:52;98201.84;;;23.46;57.33
55418;BME280;41287;47.554;7.844;2023-09-08T00:07:18;98200.69;;;23.47;57.06
55418;BME280;41287;47.554;7.844;2023-09-08T00:09:49;98198.75;;;23.48;57.42
55418;BME280;41287;47.554;7.844;2023-09-08T00:12:14;98196.38;;;23.46;57.28
55418;BME280;41287;47.554;7.844;2023-09-08T00:14:39;98195.59;;;23.46;57.17
55418;BME280;41287;47.554;7.844;2023-09-08T00:17:05;98194.44;;;23.47;57.13
55418;BME280;41287;47.554;7.844;2023-09-08T00:19:32;98186.22;;;23.47;57.48
55418;BME280;41287;47.554;7.844;2023-09-08T00:21:58;98187.81;;;23.48;57.17
55418;BME280;41287;47.554;7.844;2023-09-08T00:24:23;98194.44;;;23.47;57.52
55418;BME280;41287;47.554;7.844;2023-09-08T00:26:49;98188.97;;;23.47;57.36
55418;BME280;41287;47.554;7.844;2023-09-08T00:29:14;98191.69;;;23.47;57.41
55418;BME280;41287;47.554;7.844;2023-09-08T00:31:42;98188.97;;;23.47;57.48
55418;BME280;41287;47.554;7.844;2023-09-08T00:34:07;98184.28;;;23.47;57.21
55418;BME280;41287;47.554;7.844;2023-09-08T00:36:33;98184.28;;;23.47;57.45
55418;BME280;41287;47.554;7.844;2023-09-08T00:38:58;98185.88;;;23.48;57.25
55418;BME280;41287;47.554;7.844;2023-09-08T00:41:24;98192.50;;;23.47;57.29
55418;BME280;41287;47.554;7.844;2023-09-08T00:43:51;98194.44;;;23.47;57.43
55418;BME280;41287;47.554;7.844;2023-09-08T00:46:19;98189.75;;;23.47;57.41
55418;BME280;41287;47.554;7.844;2023-09-08T00:48:45;98184.28;;;23.47;57.43
55418;BME280;41287;47.554;7.844;2023-09-08T00:51:10;98192.50;;;23.47;57.50
55418;BME280;41287;47.554;7.844;2023-09-08T00:53:36;98187.81;;;23.48;57.51
55418;BME280;41287;47.554;7.844;2023-09-08T00:56:02;98178.81;;;23.47;57.57
55418;BME280;41287;47.554;7.844;2023-09-08T00:58:28;98188.59;;;23.48;57.30
55418;BME280;41287;47.554;7.844;2023-09-08T01:00:54;98190.56;;;23.48;57.25
55418;BME280;41287;47.554;7.844;2023-09-08T01:03:22;98186.22;;;23.47;57.44
55418;BME280;41287;47.554;7.844;2023-09-08T01:05:48;98187.03;;;23.47;57.36
55418;BME280;41287;47.554;7.844;2023-09-08T01:08:14;98187.03;;;23.47;57.31
55418;BME280;41287;47.554;7.844;2023-09-08T01:10:40;98190.56;;;23.48;57.30
55418;BME280;41287;47.554;7.844;2023-09-08T01:13:07;98185.09;;;23.48;57.48
55418;BME280;41287;47.554;7.844;2023-09-08T01:15:34;98185.88;;;23.48;57.36
55418;BME280;41287;47.554;7.844;2023-09-08T01:18:01;98185.09;;;23.48;57.31
55418;BME280;41287;47.554;7.844;2023-09-08T01:26:18;98181.84;;;23.42;57.76
55418;BME280;41287;47.554;7.844;2023-09-08T01:28:48;98183.94;;;23.49;57.21
55418;BME280;41287;47.554;7.844;2023-09-08T01:31:15;98181.56;;;23.47;57.70
55418;BME280;41287;47.554;7.844;2023-09-08T01:33:43;98189.75;;;23.47;57.34
55418;BME280;41287;47.554;7.844;2023-09-08T01:36:09;98175.28;;;23.47;57.52
55418;BME280;41287;47.554;7.844;2023-09-08T01:38:35;98177.25;;;23.46;57.64
55418;BME280;41287;47.554;7.844;2023-09-08T01:41:00;98169.03;;;23.46;57.36
55418;BME280;41287;47.554;7.844;2023-09-08T01:43:27;98172.56;;;23.47;57.53
55418;BME280;41287;47.554;7.844;2023-09-08T01:45:52;98176.88;;;23.48;57.31
55418;BME280;41287;47.554;7.844;2023-09-08T01:48:18;98172.56;;;23.47;57.31
55418;BME280;41287;47.554;7.844;2023-09-08T01:50:43;98175.28;;;23.47;57.71
55418;BME280;41287;47.554;7.844;2023-09-08T01:53:08;98170.63;;;23.47;57.27
55418;BME280;41287;47.554;7.844;2023-09-08T01:55:34;98167.88;;;23.47;57.44
55418;BME280;41287;47.554;7.844;2023-09-08T01:57:59;98173.34;;;23.47;57.65
55418;BME280;41287;47.554;7.844;2023-09-08T02:00:24;98170.63;;;23.47;57.58
55418;BME280;41287;47.554;7.844;2023-09-08T02:02:50;98167.88;;;23.47;57.35
55418;BME280;41287;47.554;7.844;2023-09-08T02:05:17;98164.34;;;23.47;57.43
55418;BME280;41287;47.554;7.844;2023-09-08T02:07:45;98171.41;;;23.48;57.63
55418;BME280;41287;47.554;7.844;2023-09-08T02:10:10;98169.81;;;23.47;57.36
55418;BME280;41287;47.554;7.844;2023-09-08T02:12:37;98165.16;;;23.47;57.55
55418;BME280;41287;47.554;7.844;2023-09-08T02:15:03;98167.88;;;23.47;57.44
55418;BME280;41287;47.554;7.844;2023-09-08T02:17:30;98167.88;;;23.47;57.41
55418;BME280;41287;47.554;7.844;2023-09-08T02:19:55;98163.19;;;23.48;57.59
55418;BME280;41287;47.554;7.844;2023-09-08T02:22:20;98165.94;;;23.48;57.49
55418;BME280;41287;47.554;7.844;2023-09-08T02:24:48;98167.88;;;23.47;57.79
55418;BME280;41287;47.554;7.844;2023-09-08T02:27:13;98164.34;;;23.47;57.41
55418;BME280;41287;47.554;7.844;2023-09-08T02:29:38;98173.34;;;23.47;57.70
55418;BME280;41287;47.554;7.844;2023-09-08T02:32:04;98165.16;;;23.47;57.46
55418;BME280;41287;47.554;7.844;2023-09-08T02:34:29;98165.94;;;23.48;57.58
55418;BME280;41287;47.554;7.844;2023-09-08T02:36:55;98165.94;;;23.48;57.65
55418;BME280;41287;47.554;7.844;2023-09-08T02:39:20;98170.63;;;23.47;57.58
55418;BME280;41287;47.554;7.844;2023-09-08T02:41:46;98172.19;;;23.48;57.63
55418;BME280;41287;47.554;7.844;2023-09-08T02:44:11;98172.19;;;23.48;57.38
55418;BME280;41287;47.554;7.844;2023-09-08T02:46:36;98171.41;;;23.48;57.64
55418;BME280;41287;47.554;7.844;2023-09-08T02:49:02;98168.66;;;23.48;57.57
55418;BME280;41287;47.554;7.844;2023-09-08T02:51:27;98172.19;;;23.48;57.58
55418;BME280;41287;47.554;7.844;2023-09-08T02:53:53;98168.66;;;23.48;57.65
55418;BME280;41287;47.554;7.844;2023-09-08T02:56:18;98177.66;;;23.48;57.52
55418;BME280;41287;47.554;7.844;2023-09-08T02:58:43;98166.72;;;23.48;57.49
55418;BME280;41287;47.554;7.844;2023-09-08T03:01:16;98174.50;;;23.46;57.45
55418;BME280;41287;47.554;7.844;2023-09-08T03:03:45;98171.41;;;23.48;57.49
55418;BME280;41287;47.554;7.844;2023-09-08T03:06:14;98165.16;;;23.47;57.52
55418;BME280;41287;47.554;7.844;2023-09-08T03:08:40;98165.94;;;23.48;57.72
55418;BME280;41287;47.554;7.844;2023-09-08T03:11:07;98163.19;;;23.48;57.62
55418;BME280;41287;47.554;7.844;2023-09-08T03:13:34;98168.66;;;23.48;57.76
55418;BME280;41287;47.554;7.844;2023-09-08T03:16:03;98171.41;;;23.48;57.87
55418;BME280;41287;47.554;7.844;2023-09-08T03:18:30;98176.09;;;23.47;57.76
55418;BME280;41287;47.554;7.844;2023-09-08T03:20:55;98183.16;;;23.48;57.52
55418;BME280;41287;47.554;7.844;2023-09-08T03:23:20;98177.66;;;23.48;57.84
55418;BME280;41287;47.554;7.844;2023-09-08T03:25:46;98178.81;;;23.47;57.57
55418;BME280;41287;47.554;7.844;2023-09-08T03:28:11;98176.88;;;23.48;57.51
55418;BME280;41287;47.554;7.844;2023-09-08T03:30:37;98177.66;;;23.48;57.65
55418;BME280;41287;47.554;7.844;2023-09-08T03:33:02;98170.63;;;23.47;57.44
55418;BME280;41287;47.554;7.844;2023-09-08T03:35:27;98175.72;;;23.49;57.58
55418;BME280;41287;47.554;7.844;2023-09-08T03:37:53;98174.94;;;23.48;57.66
55418;BME280;41287;47.554;7.844;2023-09-08T03:40:18;98166.72;;;23.48;57.71
55418;BME280;41287;47.554;7.844;2023-09-08T03:42:44;98164.78;;;23.49;57.81
55418;BME280;41287;47.554;7.844;2023-09-08T03:45:09;98168.66;;;23.48;57.73
55418;BME280;41287;47.554;7.844;2023-09-08T03:47:35;98161.25;;;23.48;57.63
55418;BME280;41287;47.554;7.844;2023-09-08T03:50:02;98162.41;;;23.47;57.55
55418;BME280;41287;47.554;7.844;2023-09-08T03:52:28;98163.19;;;23.48;57.71
55418;BME280;41287;47.554;7.844;2023-09-08T03:54:53;98160.47;;;23.48;57.88
55418;BME280;41287;47.554;7.844;2023-09-08T03:57:18;98168.66;;;23.48;57.53
55418;BME280;41287;47.554;7.844;2023-09-08T03:59:44;98160.47;;;23.48;57.69
55418;BME280;41287;47.554;7.844;2023-09-08T04:02:09;98161.25;;;23.48;57.65
55418;BME280;41287;47.554;7.844;2023-09-08T04:04:34;98172.19;;;23.48;57.73
55418;BME280;41287;47.554;7.844;2023-09-08T04:06:59;98171.41;;;23.48;57.98
55418;BME280;41287;47.554;7.844;2023-09-08T04:09:25;98177.66;;;23.48;57.68
55418;BME280;41287;47.554;7.844;2023-09-08T04:11:50;98177.31;;;23.50;57.71
55418;BME280;41287;47.554;7.844;2023-09-08T04:14:16;98176.88;;;23.48;58.01
55418;BME280;41287;47.554;7.844;2023-09-08T04:16:41;98172.19;;;23.48;57.54
55418;BME280;41287;47.554;7.844;2023-09-08T04:19:07;98173.00;;;23.49;57.81
55418;BME280;41287;47.554;7.844;2023-09-08T04:21:32;98176.88;;;23.48;57.73
55418;BME280;41287;47.554;7.844;2023-09-08T04:23:57;98176.88;;;23.48;57.82
55418;BME280;41287;47.554;7.844;2023-09-08T04:26:23;98172.19;;;23.48;57.87
55418;BME280;41287;47.554;7.844;2023-09-08T04:28:48;98176.88;;;23.48;57.90
55418;BME280;41287;47.554;7.844;2023-09-08T04:31:14;98180.41;;;23.48;57.79
55418;BME280;41287;47.554;7.844;2023-09-08T04:33:39;98183.16;;;23.48;57.69
55418;BME280;41287;47.554;7.844;2023-09-08T04:36:04;98185.44;;;23.46;57.56
55418;BME280;41287;47.554;7.844;2023-09-08T04:38:29;98185.09;;;23.48;57.63
55418;BME280;41287;47.554;7.844;2023-09-08T04:40:55;98181.56;;;23.47;58.07
55418;BME280;41287;47.554;7.844;2023-09-08T04:43:22;98187.03;;;23.47;58.03
55418;BME280;41287;47.554;7.844;2023-09-08T04:45:50;98179.63;;;23.48;57.90
55418;BME280;41287;47.554;7.844;2023-09-08T04:48:15;98178.81;;;23.47;57.73
55418;BME280;41287;47.554;7.844;2023-09-08T04:50:43;98181.56;;;23.47;57.97
55418;BME280;41287;47.554;7.844;2023-09-08T04:53:08;98186.22;;;23.47;58.21
55418;BME280;41287;47.554;7.844;2023-09-08T04:55:34;98180.75;;;23.47;58.46
55418;BME280;41287;47.554;7.844;2023-09-08T04:57:59;98181.91;;;23.46;58.97
55418;BME280;41287;47.554;7.844;2023-09-08T05:00:24;98193.66;;;23.46;58.57
55418;BME280;41287;47.554;7.844;2023-09-08T05:02:50;98188.19;;;23.46;59.05
55418;BME280;41287;47.554;7.844;2023-09-08T05:05:15;98190.13;;;23.46;58.64
55418;BME280;41287;47.554;7.844;2023-09-08T05:07:40;98187.38;;;23.46;58.82
55418;BME280;41287;47.554;7.844;2023-09-08T05:10:06;98190.13;;;23.46;58.95
55418;BME280;41287;47.554;7.844;2023-09-08T05:12:31;98187.75;;;23.44;58.88
55418;BME280;41287;47.554;7.844;2023-09-08T05:14:59;98190.47;;;23.44;58.44
55418;BME280;41287;47.554;7.844;2023-09-08T05:17:31;98194.34;;;23.43;58.45
55418;BME280;41287;47.554;7.844;2023-09-08T05:19:56;98196.28;;;23.43;58.41
55418;BME280;41287;47.554;7.844;2023-09-08T05:22:21;98197.84;;;23.40;58.37
55418;BME280;41287;47.554;7.844;2023-09-08T05:24:47;98197.03;;;23.40;58.54
55418;BME280;41287;47.554;7.844;2023-09-08T05:27:14;98197.03;;;23.40;58.68
55418;BME280;41287;47.554;7.844;2023-09-08T05:29:42;98202.88;;;23.38;58.75
55418;BME280;41287;47.554;7.844;2023-09-08T05:32:07;98203.66;;;23.39;58.65
55418;BME280;41287;47.554;7.844;2023-09-08T05:34:32;98204.00;;;23.37;58.43
55418;BME280;41287;47.554;7.844;2023-09-08T05:36:57;98202.06;;;23.38;58.69
55418;BME280;41287;47.554;7.844;2023-09-08T05:39:23;98205.16;;;23.36;58.55
55418;BME280;41287;47.554;7.844;2023-09-08T05:41:48;98209.47;;;23.37;58.71
55418;BME280;41287;47.554;7.844;2023-09-08T05:44:14;98209.47;;;23.37;58.81
55418;BME280;41287;47.554;7.844;2023-09-08T05:46:39;98209.47;;;23.37;58.92
55418;BME280;41287;47.554;7.844;2023-09-08T05:49:04;98209.47;;;23.37;58.77
55418;BME280;41287;47.554;7.844;2023-09-08T05:51:30;98205.59;;;23.38;58.68
55418;BME280;41287;47.554;7.844;2023-09-08T05:53:56;98214.16;;;23.37;58.54
55418;BME280;41287;47.554;7.844;2023-09-08T05:56:24;98217.69;;;23.37;58.71
55418;BME280;41287;47.554;7.844;2023-09-08T05:58:49;98214.16;;;23.37;58.82
55418;BME280;41287;47.554;7.844;2023-09-08T06:01:15;98210.28;;;23.38;58.58
55418;BME280;41287;47.554;7.844;2023-09-08T06:03:41;98210.28;;;23.38;58.32
55418;BME280;41287;47.554;7.844;2023-09-08T06:06:06;98208.34;;;23.38;58.25
55418;BME280;41287;47.554;7.844;2023-09-08T06:08:32;98211.06;;;23.38;58.49
55418;BME280;41287;47.554;7.844;2023-09-08T06:10:57;98217.34;;;23.39;58.58
55418;BME280;41287;47.554;7.844;2023-09-08T06:13:22;98216.19;;;23.40;58.72
55418;BME280;41287;47.554;7.844;2023-09-08T06:15:47;98216.19;;;23.40;58.40
55418;BME280;41287;47.554;7.844;2023-09-08T06:18:15;98216.97;;;23.40;58.40
55418;BME280;41287;47.554;7.844;2023-09-08T06:20:47;98211.84;;;23.39;58.45
55418;BME280;41287;47.554;7.844;2023-09-08T06:23:13;98214.25;;;23.40;58.30
55418;BME280;41287;47.554;7.844;2023-09-08T06:25:39;98219.72;;;23.40;58.51
55418;BME280;41287;47.554;7.844;2023-09-08T06:28:04;98212.25;;;23.41;58.66
55418;BME280;41287;47.554;7.844;2023-09-08T06:30:30;98219.31;;;23.42;58.32
55418;BME280;41287;47.554;7.844;2023-09-08T06:32:55;98211.50;;;23.40;58.30
55418;BME280;41287;47.554;7.844;2023-09-08T06:35:21;98221.66;;;23.40;58.51
55418;BME280;41287;47.554;7.844;2023-09-08T06:37:46;98218.91;;;23.40;58.60
55418;BME280;41287;47.554;7.844;2023-09-08T06:40:11;98222.06;;;23.42;58.50
55418;BME280;41287;47.554;7.844;2023-09-08T06:42:37;98222.06;;;23.42;58.31
55418;BME280;41287;47.554;7.844;2023-09-08T06:45:02;98216.59;;;23.42;58.60
55418;BME280;41287;47.554;7.844;2023-09-08T06:47:27;98226.38;;;23.43;58.30
55418;BME280;41287;47.554;7.844;2023-09-08T06:49:55;98224.00;;;23.41;58.46
55418;BME280;41287;47.554;7.844;2023-09-08T06:52:24;98219.31;;;23.42;58.54
55418;BME280;41287;47.554;7.844;2023-09-08T06:54:49;98220.13;;;23.42;58.40
55418;BME280;41287;47.554;7.844;2023-09-08T06:57:18;98226.75;;;23.41;58.48
55418;BME280;41287;47.554;7.844;2023-09-08T06:59:43;98225.59;;;23.42;58.18
55418;BME280;41287;47.554;7.844;2023-09-08T07:02:08;98219.31;;;23.42;57.97
55418;BME280;41287;47.554;7.844;2023-09-08T07:04:34;98222.84;;;23.42;58.30
55418;BME280;41287;47.554;7.844;2023-09-08T07:07:01;98215.44;;;23.43;58.43
55418;BME280;41287;47.554;7.844;2023-09-08T07:09:32;98220.47;;;23.41;58.37
55418;BME280;41287;47.554;7.844;2023-09-08T07:11:57;98221.72;;;23.43;58.17
55418;BME280;41287;47.554;7.844;2023-09-08T07:14:22;98220.91;;;23.43;58.07
55418;BME280;41287;47.554;7.844;2023-09-08T07:16:49;98219.31;;;23.42;58.22
55418;BME280;41287;47.554;7.844;2023-09-08T07:19:14;98215.44;;;23.43;58.25
55418;BME280;41287;47.554;7.844;2023-09-08T07:21:39;98214.66;;;23.42;58.04
55418;BME280;41287;47.554;7.844;2023-09-08T07:24:07;98220.91;;;23.43;58.21
55418;BME280;41287;47.554;7.844;2023-09-08T07:26:33;98217.38;;;23.42;58.33
55418;BME280;41287;47.554;7.844;2023-09-08T07:28:58;98218.97;;;23.43;58.07
55418;BME280;41287;47.554;7.844;2023-09-08T07:31:23;98223.66;;;23.43;58.35
55418;BME280;41287;47.554;7.844;2023-09-08T07:33:48;98215.44;;;23.43;58.46
55418;BME280;41287;47.554;7.844;2023-09-08T07:36:16;98218.97;;;23.43;58.32
55418;BME280;41287;47.554;7.844;2023-09-08T07:38:41;98218.97;;;23.43;58.10
55418;BME280;41287;47.554;7.844;2023-09-08T07:41:07;98228.31;;;23.42;58.18
55418;BME280;41287;47.554;7.844;2023-09-08T07:43:32;98222.84;;;23.42;58.18
55418;BME280;41287;47.554;7.844;2023-09-08T07:45:58;98231.06;;;23.42;58.33
55418;BME280;41287;47.554;7.844;2023-09-08T07:48:25;98221.72;;;23.43;58.09
55418;BME280;41287;47.554;7.844;2023-09-08T07:50:53;98227.16;;;23.43;58.29
55418;BME280;41287;47.554;7.844;2023-09-08T07:53:19;98231.84;;;23.43;58.36
55418;BME280;41287;47.554;7.844;2023-09-08T07:55:44;98229.13;;;23.43;58.05
55418;BME280;41287;47.554;7.844;2023-09-08T07:58:10;98217.38;;;23.42;58.02
55418;BME280;41287;47.554;7.844;2023-09-08T08:00:36;98219.75;;;23.44;58.14
55418;BME280;41287;47.554;7.844;2023-09-08T08:03:01;98227.97;;;23.44;58.34
55418;BME280;41287;47.554;7.844;2023-09-08T08:05:27;98218.97;;;23.43;58.33
55418;BME280;41287;47.554;7.844;2023-09-08T08:07:52;98220.91;;;23.43;58.33
55418;BME280;41287;47.554;7.844;2023-09-08T08:10:20;98224.44;;;23.43;58.05
55418;BME280;41287;47.554;7.844;2023-09-08T08:12:45;98227.97;;;23.44;58.31
55418;BME280;41287;47.554;7.844;2023-09-08T08:15:11;98222.50;;;23.44;58.06
55418;BME280;41287;47.554;7.844;2023-09-08T08:17:37;98221.72;;;23.43;58.10
55418;BME280;41287;47.554;7.844;2023-09-08T08:20:04;98225.22;;;23.44;58.04
55418;BME280;41287;47.554;7.844;2023-09-08T08:22:35;98220.56;;;23.44;58.23
55418;BME280;41287;47.554;7.844;2023-09-08T08:25:01;98225.22;;;23.44;58.00
55418;BME280;41287;47.554;7.844;2023-09-08T08:27:28;98222.50;;;23.44;58.11
55418;BME280;41287;47.554;7.844;2023-09-08T08:29:53;98218.97;;;23.43;58.09
55418;BME280;41287;47.554;7.844;2023-09-08T08:32:19;98229.13;;;23.43;58.21
55418;BME280;41287;47.554;7.844;2023-09-08T08:34:47;98222.50;;;23.44;58.29
55418;BME280;41287;47.554;7.844;2023-09-08T08:37:13;98225.22;;;23.44;58.01
55418;BME280;41287;47.554;7.844;2023-09-08T08:39:39;98224.44;;;23.43;58.22
55418;BME280;41287;47.554;7.844;2023-09-08T08:42:08;98225.22;;;23.44;58.27
55418;BME280;41287;47.554;7.844;2023-09-08T08:44:34;98224.44;;;23.43;58.18
55418;BME280;41287;47.554;7.844;2023-09-08T08:47:02;98217.81;;;23.44;58.08
55418;BME280;41287;47.554;7.844;2023-09-08T08:49:29;98222.50;;;23.44;57.94
55418;BME280;41287;47.554;7.844;2023-09-08T08:51:56;98221.72;;;23.43;57.80
55418;BME280;41287;47.554;7.844;2023-09-08T08:54:24;98224.44;;;23.43;58.29
55418;BME280;41287;47.554;7.844;2023-09-08T08:56:50;98215.44;;;23.43;57.94
55418;BME280;41287;47.554;7.844;2023-09-08T08:59:16;98223.66;;;23.43;57.98
55418;BME280;41287;47.554;7.844;2023-09-08T09:01:42;98222.50;;;23.44;58.08
55418;BME280;41287;47.554;7.844;2023-09-08T09:04:08;98215.44;;;23.43;58.25
55418;BME280;41287;47.554;7.844;2023-09-08T09:06:35;98218.97;;;23.43;57.95
55418;BME280;41287;47.554;7.844;2023-09-08T09:09:00;98213.50;;;23.43;58.29
55418;BME280;41287;47.554;7.844;2023-09-08T09:11:26;98223.28;;;23.44;58.23
55418;BME280;41287;47.554;7.844;2023-09-08T09:13:52;98220.56;;;23.44;57.96
55418;BME280;41287;47.554;7.844;2023-09-08T09:16:17;98213.50;;;23.43;58.23
55418;BME280;41287;47.554;7.844;2023-09-08T09:18:58;98209.53;;;23.41;58.08
55418;BME280;41287;47.554;7.844;2023-09-08T09:21:24;98205.28;;;23.43;58.15
55418;BME280;41287;47.554;7.844;2023-09-08T09:24:06;98206.09;;;23.44;58.17
55418;BME280;41287;47.554;7.844;2023-09-08T09:26:31;98212.34;;;23.44;58.12
55418;BME280;41287;47.554;7.844;2023-09-08T09:28:58;98209.63;;;23.44;57.97
55418;BME280;41287;47.554;7.844;2023-09-08T09:31:24;98206.09;;;23.44;58.16
55418;BME280;41287;47.554;7.844;2023-09-08T09:34:04;98207.59;;;23.41;58.18
55418;BME280;41287;47.554;7.844;2023-09-08T09:36:30;98206.09;;;23.44;58.23
55418;BME280;41287;47.554;7.844;2023-09-08T09:38:59;98199.03;;;23.43;58.02
55418;BME280;41287;47.554;7.844;2023-09-08T09:41:27;98209.63;;;23.44;57.97
55418;BME280;41287;47.554;7.844;2023-09-08T09:43:53;98195.16;;;23.44;57.96
55418;BME280;41287;47.554;7.844;2023-09-08T09:46:19;98201.41;;;23.44;57.88
55418;BME280;41287;47.554;7.844;2023-09-08T09:48:50;98199.81;;;23.43;57.87
55418;BME280;41287;47.554;7.844;2023-09-08T09:51:16;98201.78;;;23.43;58.17
55418;BME280;41287;47.554;7.844;2023-09-08T09:53:42;98197.88;;;23.44;57.99
55418;BME280;41287;47.554;7.844;2023-09-08T09:56:08;98192.41;;;23.44;58.04
55418;BME280;41287;47.554;7.844;2023-09-08T09:58:35;98194.34;;;23.43;58.15
55418;BME280;41287;47.554;7.844;2023-09-08T10:01:02;98190.47;;;23.44;57.92
55418;BME280;41287;47.554;7.844;2023-09-08T10:03:29;98191.63;;;23.43;58.02
55418;BME280;41287;47.554;7.844;2023-09-08T10:05:56;98194.00;;;23.45;58.16
55418;BME280;41287;47.554;7.844;2023-09-08T10:08:23;98186.16;;;23.43;58.19
55418;BME280;41287;47.554;7.844;2023-09-08T10:10:48;98186.94;;;23.44;58.06
55418;BME280;41287;47.554;7.844;2023-09-08T10:13:23;98181.84;;;23.42;58.22
55418;BME280;41287;47.554;7.844;2023-09-08T10:15:56;98179.53;;;23.44;58.27
55418;BME280;41287;47.554;7.844;2023-09-08T10:18:23;98178.75;;;23.44;57.88
55418;BME280;41287;47.554;7.844;2023-09-08T10:20:53;98173.28;;;23.44;58.28
55418;BME280;41287;47.554;7.844;2023-09-08T10:23:25;98175.22;;;23.43;58.22
55418;BME280;41287;47.554;7.844;2023-09-08T10:25:56;98180.69;;;23.43;58.17
55418;BME280;41287;47.554;7.844;2023-09-08T10:28:22;98178.75;;;23.44;58.04
55418;BME280;41287;47.554;7.844;2023-09-08T10:30:48;98172.13;;;23.45;58.07
55418;BME280;41287;47.554;7.844;2023-09-08T10:33:15;98178.38;;;23.45;58.03
55418;BME280;41287;47.554;7.844;2023-09-08T10:35:42;98176.78;;;23.44;58.12
55418;BME280;41287;47.554;7.844;2023-09-08T10:38:24;98170.09;;;23.42;57.84
55418;BME280;41287;47.554;7.844;2023-09-08T10:40:51;98163.91;;;23.45;58.07
55418;BME280;41287;47.554;7.844;2023-09-08T10:43:18;98166.66;;;23.45;58.04
55418;BME280;41287;47.554;7.844;2023-09-08T10:45:43;98161.19;;;23.45;58.13
55418;BME280;41287;47.554;7.844;2023-09-08T10:48:10;98156.84;;;23.44;57.89
55418;BME280;41287;47.554;7.844;2023-09-08T10:50:39;98159.59;;;23.44;58.03
55418;BME280;41287;47.554;7.844;2023-09-08T10:53:18;98157.22;;;23.42;57.88
55418;BME280;41287;47.554;7.844;2023-09-08T10:55:45;98152.19;;;23.44;57.93
55418;BME280;41287;47.554;7.844;2023-09-08T10:58:33;98150.97;;;23.42;58.23
55418;BME280;41287;47.554;7.844;2023-09-08T11:01:00;98160.38;;;23.44;58.19
55418;BME280;41287;47.554;7.844;2023-09-08T11:06:07;98150.25;;;23.45;57.92
55418;BME280;41287;47.554;7.844;2023-09-08T11:08:34;98146.72;;;23.44;58.07
55418;BME280;41287;47.554;7.844;2023-09-08T11:11:01;98146.72;;;23.44;58.08
55418;BME280;41287;47.554;7.844;2023-09-08T11:13:27;98144.78;;;23.45;58.17
55418;BME280;41287;47.554;7.844;2023-09-08T11:15:53;98141.25;;;23.44;58.16
55418;BME280;41287;47.554;7.844;2023-09-08T11:18:28;98147.88;;;23.43;58.11
55418;BME280;41287;47.554;7.844;2023-09-08T11:20:54;98149.44;;;23.44;58.20
55418;BME280;41287;47.554;7.844;2023-09-08T11:23:21;98149.44;;;23.44;57.97
55418;BME280;41287;47.554;7.844;2023-09-08T11:25:46;98146.72;;;23.44;58.15
55418;BME280;41287;47.554;7.844;2023-09-08T11:28:12;98140.44;;;23.44;58.13
55418;BME280;41287;47.554;7.844;2023-09-08T11:30:39;98143.97;;;23.44;58.20
55418;BME280;41287;47.554;7.844;2023-09-08T11:33:16;98148.66;;;23.44;57.88
55418;BME280;41287;47.554;7.844;2023-09-08T11:35:41;98145.56;;;23.45;58.15
55418;BME280;41287;47.554;7.844;2023-09-08T11:38:11;98142.03;;;23.45;57.93
55418;BME280;41287;47.554;7.844;2023-09-08T11:40:37;98142.03;;;23.45;57.95
55418;BME280;41287;47.554;7.844;2023-09-08T11:43:03;98136.56;;;23.45;58.06
55418;BME280;41287;47.554;7.844;2023-09-08T11:45:29;98138.50;;;23.44;57.81
55418;BME280;41287;47.554;7.844;2023-09-08T11:47:55;98134.97;;;23.44;58.27
55418;BME280;41287;47.554;7.844;2023-09-08T11:50:23;98138.50;;;23.44;58.17
55418;BME280;41287;47.554;7.844;2023-09-08T11:52:52;98128.38;;;23.45;57.88
55418;BME280;41287;47.554;7.844;2023-09-08T11:55:18;98135.78;;;23.44;57.81
55418;BME280;41287;47.554;7.844;2023-09-08T11:57:47;98130.31;;;23.44;58.02
55418;BME280;41287;47.554;7.844;2023-09-08T12:00:13;98126.78;;;23.44;58.15
55418;BME280;41287;47.554;7.844;2023-09-08T12:02:42;98130.31;;;23.44;57.59
55418;BME280;41287;47.554;7.844;2023-09-08T12:05:27;98131.03;;;23.41;57.81
55418;BME280;41287;47.554;7.844;2023-09-08T12:07:55;98129.50;;;23.44;57.59
55418;BME280;41287;47.554;7.844;2023-09-08T12:10:22;98122.09;;;23.44;57.66
55418;BME280;41287;47.554;7.844;2023-09-08T12:12:51;98113.91;;;23.44;57.33
55418;BME280;41287;47.554;7.844;2023-09-08T12:15:41;98116.19;;;23.42;57.31
55418;BME280;41287;47.554;7.844;2023-09-08T12:18:08;98111.97;;;23.45;57.33
55418;BME280;41287;47.554;7.844;2023-09-08T12:20:37;98115.47;;;23.45;57.74
55418;BME280;41287;47.554;7.844;2023-09-08T12:23:04;98116.28;;;23.46;57.51
55418;BME280;41287;47.554;7.844;2023-09-08T12:25:30;98119.81;;;23.46;57.32
55418;BME280;41287;47.554;7.844;2023-09-08T12:28:00;98111.59;;;23.46;57.25
55418;BME280;41287;47.554;7.844;2023-09-08T12:30:26;98100.31;;;23.48;57.44
55418;BME280;41287;47.554;7.844;2023-09-08T12:33:01;98102.59;;;23.46;57.49
55418;BME280;41287;47.554;7.844;2023-09-08T12:35:29;98093.25;;;23.47;57.65
55418;BME280;41287;47.554;7.844;2023-09-08T12:38:02;98092.03;;;23.44;57.75
55418;BME280;41287;47.554;7.844;2023-09-08T12:40:29;98095.19;;;23.46;57.74
55418;BME280;41287;47.554;7.844;2023-09-08T12:42:55;98090.88;;;23.45;57.57
55418;BME280;41287;47.554;7.844;2023-09-08T12:45:21;98088.94;;;23.46;57.81
55418;BME280;41287;47.554;7.844;2023-09-08T12:47:48;98086.19;;;23.46;57.71
55418;BME280;41287;47.554;7.844;2023-09-08T12:50:14;98091.66;;;23.46;57.92
55418;BME280;41287;47.554;7.844;2023-09-08T12:52:42;98093.59;;;23.45;57.94
55418;BME280;41287;47.554;7.844;2023-09-08T12:55:10;98088.56;;;23.47;57.82
55418;BME280;41287;47.554;7.844;2023-09-08T12:57:37;98085.03;;;23.47;57.92
55418;BME280;41287;47.554;7.844;2023-09-08T13:00:04;98089.72;;;23.46;57.92
55418;BME280;41287;47.554;7.844;2023-09-08T13:02:29;98084.25;;;23.46;57.92
55418;BME280;41287;47.554;7.844;2023-09-08T13:04:55;98080.72;;;23.46;58.10
55418;BME280;41287;47.554;7.844;2023-09-08T13:07:21;98080.72;;;23.46;57.86